Rk27 — LZTO — position and weather

sailwx.info

Track history (hours):
 
Tides and Currents Weather Stations Pressure Air Temp Water Temp Dewpoint Dewpoint Depression Visibility Wind Speed Wind Dir Waves Ship Positions

Rk27

Last reported at 2018-Jun-14 07:02 UTC. Time now 2018-Jun-20 23:08 UTC.
Position N 42°28' E 027°45'.

Length 26 m.

Type: Fishing. MMSI: 207421000.

Date/timePositionNaut miles runAvg speedWind from/ knotsBaromVisibWave heightAir tempDewpointWater temp
2018-Jun-14 07:02N 42°28' E 027°45'0 3.0
2018-Jun-14 07:00N 42°28' E 027°45'2 3.0
2018-Jun-14 06:24N 42°29' E 027°47'1 3.3
2018-Jun-14 05:59N 42°29' E 027°49'1 1.5
2018-Jun-14 05:08N 42°28' E 027°49'1 3.1
2018-Jun-14 04:54N 42°28' E 027°48'1 3.0
2018-Jun-14 04:30N 42°27' E 027°46'  
2018-Jun-09 05:48N 42°38' E 027°50'1 3.0
2018-Jun-09 05:28N 42°37' E 027°49'1 3.1
2018-Jun-09 05:00N 42°36' E 027°47'4 7.1
2018-Jun-09 04:30N 42°33' E 027°46'4 7.9
2018-Jun-09 04:00N 42°29' E 027°44'  
Track history (hours):
 
Tides and Currents Weather Stations Pressure Air Temp Water Temp Dewpoint Dewpoint Depression Visibility Wind Speed Wind Dir Waves Ship Positions

Rk27

Last reported at 2018-Jun-14 07:02 UTC. Time now 2018-Jun-20 23:08 UTC.
Position N 42°28' E 027°45'.

Length 26 m.

Type: Fishing. MMSI: 207421000.

Date/timePositionNaut miles runAvg speedWind from/ knotsBaromVisibWave heightAir tempDewpointWater temp
2018-Jun-14 07:02N 42°28' E 027°45'0 3.0
2018-Jun-14 07:00N 42°28' E 027°45'2 3.0
2018-Jun-14 06:24N 42°29' E 027°47'1 3.3
2018-Jun-14 05:59N 42°29' E 027°49'1 1.5
2018-Jun-14 05:08N 42°28' E 027°49'1 3.1
2018-Jun-14 04:54N 42°28' E 027°48'1 3.0
2018-Jun-14 04:30N 42°27' E 027°46'  
2018-Jun-09 05:48N 42°38' E 027°50'1 3.0
2018-Jun-09 05:28N 42°37' E 027°49'1 3.1
2018-Jun-09 05:00N 42°36' E 027°47'4 7.1
2018-Jun-09 04:30N 42°33' E 027°46'4 7.9
2018-Jun-09 04:00N 42°29' E 027°44'  

Dump ship's entire track history